Terminal Aerodrome Forecast
Issued by NWS Corpus Christi, TX

Home | Current Version | Previous Version | Text Only | Print | Product List | Glossary On
Versions: 1 2 3 4 5 6 7 8 9 10 11 12 13 14 15 16 17 18 19 20
000
FTUS44 KCRP 211700
TAFCRP
TAF
KCRP 211725Z 2118/2218 06014KT P6SM SCT030 SCT250
     FM220100 09007KT P6SM FEW018 SCT250
     FM220800 05006KT P6SM FEW018 SCT250
     FM221500 08013KT P6SM SCT250=

USA.gov is the U.S. government's official web portal to all federal, state and local government web resources and services.